Time;durP1;ratioP1;P1;durP2;ratioP2;P2;SDS_P1;SDS_P2;PMS_P1;PMS_P2;Temp;Humidity;BMP_temperature;BMP_pressure;BME280_temperature;BME280_humidity;BME280_pressure;Samples;Min_cycle;Max_cycle;Signal;HPM_P1;HPM_P2
2022/03/30 00:00:51;;;;;;;26.47;15.77;;;12.00;76.50;;;;;;10270068;28;20238;-84
2022/03/30 00:05:53;;;;;;;22.43;14.73;;;11.40;75.60;;;;;;10270962;28;20229;-84
2022/03/30 00:10:56;;;;;;;22.10;13.10;;;11.60;77.40;;;;;;10272724;28;20668;-84
2022/03/30 00:15:59;;;;;;;25.07;14.23;;;12.00;77.60;;;;;;10295268;28;20287;-84
2022/03/30 00:21:02;;;;;;;21.80;13.00;;;11.60;76.60;;;;;;10295301;28;20735;-84
2022/03/30 00:26:04;;;;;;;17.53;12.07;;;11.60;77.90;;;;;;10278227;28;20269;-84
2022/03/30 00:31:07;;;;;;;21.63;13.17;;;11.90;77.70;;;;;;10295580;28;20257;-84
2022/03/30 00:36:09;;;;;;;20.10;13.13;;;11.90;76.30;;;;;;10295109;28;20233;-84
2022/03/30 00:41:12;;;;;;;23.90;12.57;;;11.60;77.50;;;;;;10277406;28;20698;-84
2022/03/30 00:46:15;;;;;;;18.47;11.50;;;11.40;78.00;;;;;;10294086;28;20257;-84
2022/03/30 00:51:18;;;;;;;26.67;15.27;;;11.20;78.40;;;;;;10294480;28;20792;-84
2022/03/30 00:56:21;;;;;;;19.73;12.23;;;11.20;76.70;;;;;;10276956;28;20233;-85
2022/03/30 01:01:24;;;;;;;25.03;14.60;;;11.40;78.90;;;;;;10293523;28;20273;-84
2022/03/30 01:06:27;;;;;;;28.10;13.57;;;11.00;78.50;;;;;;10275951;28;20209;-84
2022/03/30 01:11:30;;;;;;;20.50;11.87;;;10.50;78.30;;;;;;10275961;28;20261;-84
2022/03/30 01:16:32;;;;;;;27.63;15.00;;;10.80;81.30;;;;;;10276145;28;20210;-85
2022/03/30 01:21:39;;;;;;;25.30;13.23;;;11.20;77.70;;;;;;10292221;28;20316;-84
2022/03/30 01:26:42;;;;;;;30.57;15.97;;;11.30;78.70;;;;;;10293159;28;20574;-85
2022/03/30 01:37:07;;;;;;;20.03;12.43;;;10.60;81.30;;;;;;10292167;28;20622;-85
2022/03/30 01:42:10;;;;;;;15.07;11.17;;;11.40;79.40;;;;;;10291951;28;20233;-85
2022/03/30 01:47:13;;;;;;;18.90;11.60;;;11.80;78.20;;;;;;10291235;28;20284;-84
2022/03/30 01:52:16;;;;;;;21.37;11.83;;;11.80;77.80;;;;;;10291621;28;20292;-85
2022/03/30 01:57:19;;;;;;;25.93;15.20;;;11.80;77.10;;;;;;10291203;28;20825;-85
2022/03/30 02:02:23;;;;;;;17.60;10.77;;;11.20;75.30;;;;;;10291212;28;20296;-85
2022/03/30 02:07:26;;;;;;;23.10;12.47;;;11.20;79.60;;;;;;10274020;28;20261;-84
2022/03/30 02:12:28;;;;;;;22.40;13.23;;;11.40;77.20;;;;;;10291037;28;20252;-84
2022/03/30 02:17:32;;;;;;;17.80;10.90;;;11.40;77.60;;;;;;10290373;28;20256;-84
2022/03/30 02:22:35;;;;;;;17.47;10.90;;;11.20;79.00;;;;;;10290803;28;20229;-84
2022/03/30 02:27:38;;;;;;;24.20;12.33;;;11.10;79.80;;;;;;10273177;28;20357;-84
2022/03/30 02:32:42;;;;;;;19.30;10.90;;;11.00;79.10;;;;;;10289483;28;20253;-85
2022/03/30 02:37:44;;;;;;;17.97;10.63;;;11.40;79.30;;;;;;10290074;28;20229;-85
2022/03/30 02:42:47;;;;;;;15.83;9.63;;;11.50;78.40;;;;;;10290029;28;20287;-85
2022/03/30 02:53:12;;;;;;;14.50;10.00;;;10.90;80.10;;;;;;10289149;28;20273;-85
2022/03/30 02:58:15;;;;;;;20.93;11.33;;;11.00;78.90;;;;;;10289435;28;20205;-85
2022/03/30 03:03:17;;;;;;;21.03;11.37;;;10.60;78.60;;;;;;10288574;28;20753;-85
2022/03/30 03:08:20;;;;;;;21.33;10.07;;;10.40;79.70;;;;;;10288932;28;20232;-85
2022/03/30 03:13:22;;;;;;;17.67;9.80;;;9.90;79.80;;;;;;10271478;28;20585;-85
2022/03/30 03:18:25;;;;;;;16.30;9.33;;;9.50;83.90;;;;;;10288420;28;20632;-85
2022/03/30 03:23:27;;;;;;;17.10;9.73;;;9.70;84.00;;;;;;10288055;28;20237;-84
2022/03/30 03:28:30;;;;;;;18.87;9.97;;;10.20;82.30;;;;;;10287864;28;20670;-84
2022/03/30 03:33:33;;;;;;;13.80;9.20;;;10.40;81.70;;;;;;10287213;28;20285;-84
2022/03/30 03:38:35;;;;;;;16.23;10.20;;;10.90;80.50;;;;;;10287654;28;20654;-84
2022/03/30 03:43:38;;;;;;;15.40;9.80;;;10.60;80.40;;;;;;10287845;28;20279;-84
2022/03/30 03:48:41;;;;;;;12.43;8.80;;;10.60;81.00;;;;;;10286270;28;20281;-85
2022/03/30 03:53:43;;;;;;;15.93;8.97;;;11.10;79.60;;;;;;10287070;28;20257;-85
2022/03/30 03:58:48;;;;;;;13.80;9.37;;;10.70;78.60;;;;;;10287540;28;20307;-85
2022/03/30 04:03:51;;;;;;;14.70;8.27;;;10.50;82.90;;;;;;10286668;28;20245;-84
2022/03/30 04:08:54;;;;;;;17.80;10.07;;;11.50;75.90;;;;;;10286798;28;20253;-85
2022/03/30 04:13:56;;;;;;;17.63;9.53;;;11.30;76.40;;;;;;10287130;28;20233;-85
2022/03/30 04:18:59;;;;;;;14.67;8.77;;;10.40;76.00;;;;;;10286297;28;20249;-84
2022/03/30 04:24:02;;;;;;;16.43;9.10;;;9.90;81.30;;;;;;10286512;28;20287;-85
2022/03/30 04:29:05;;;;;;;17.40;9.37;;;10.40;82.30;;;;;;10286811;28;20316;-84
2022/03/30 04:34:08;;;;;;;20.47;9.13;;;10.80;80.40;;;;;;10286559;28;20696;-85
2022/03/30 04:39:10;;;;;;;18.13;10.70;;;10.60;79.90;;;;;;10268885;28;20799;-84
2022/03/30 04:44:13;;;;;;;17.97;10.20;;;10.10;81.00;;;;;;10286503;28;20637;-85
2022/03/30 04:49:15;;;;;;;14.93;8.97;;;10.20;81.50;;;;;;10268490;28;20677;-85
2022/03/30 04:54:18;;;;;;;37.33;10.90;;;10.00;82.40;;;;;;10285318;28;20261;-85
2022/03/30 04:59:20;;;;;;;16.03;8.87;;;10.10;82.10;;;;;;10291044;28;20233;-84
2022/03/30 05:04:23;;;;;;;14.17;8.10;;;10.20;82.90;;;;;;10295177;28;20299;-85
2022/03/30 05:09:25;;;;;;;18.20;8.27;;;10.60;82.20;;;;;;10294524;28;20336;-84
2022/03/30 05:14:28;;;;;;;18.30;8.07;;;10.80;81.10;;;;;;10292228;28;20236;-84
2022/03/30 05:19:30;;;;;;;14.97;8.83;;;10.80;78.40;;;;;;10278325;28;20630;-84
2022/03/30 05:24:33;;;;;;;38.70;19.97;;;10.70;81.10;;;;;;10279727;28;20226;-87
2022/03/30 05:29:36;;;;;;;35.50;17.97;;;4.40;75.80;;;;;;10311004;28;20275;-87
2022/03/30 05:34:39;;;;;;;32.70;12.07;;;1.70;93.10;;;;;;10307858;28;20237;-91
2022/03/30 05:39:42;;;;;;;22.20;10.50;;;7.10;99.90;;;;;;10275907;28;20210;-93
2022/03/30 05:44:45;;;;;;;32.90;13.60;;;11.50;85.60;;;;;;10294808;28;20201;-91
2022/03/30 05:49:48;;;;;;;25.57;13.07;;;11.90;79.80;;;;;;10285825;28;20757;-93
2022/03/30 05:54:50;;;;;;;26.83;12.70;;;12.10;72.10;;;;;;10284610;28;20225;-92
2022/03/30 05:59:53;;;;;;;25.07;12.13;;;;;;;;;;10310352;28;20205;-91
2022/03/30 06:04:59;;;;;;;22.17;11.07;;;12.00;69.30;;;;;;10288057;28;20707;-90
2022/03/30 06:10:02;;;;;;;27.13;11.60;;;12.50;68.80;;;;;;10308658;28;20249;-94
2022/03/30 06:15:05;;;;;;;19.07;9.50;;;13.10;67.00;;;;;;10313603;28;20202;-93
2022/03/30 06:20:10;;;;;;;18.13;10.57;;;12.30;61.20;;;;;;10285960;28;20213;-91
2022/03/30 06:25:12;;;;;;;22.00;10.70;;;13.60;65.60;;;;;;10287412;28;20201;-93
2022/03/30 06:30:15;;;;;;;20.17;11.37;;;;;;;;;;10308408;28;20249;-91
2022/03/30 06:35:19;;;;;;;21.27;9.07;;;14.50;62.20;;;;;;10281188;28;20221;-92
2022/03/30 06:40:22;;;;;;;19.07;9.83;;;14.10;59.30;;;;;;10306548;28;20202;-92
2022/03/30 06:45:25;;;;;;;20.53;8.87;;;11.20;70.70;;;;;;10273930;28;20201;-92
2022/03/30 06:50:29;;;;;;;15.27;7.13;;;13.10;61.30;;;;;;10272748;28;20233;-93
2022/03/30 06:55:32;;;;;;;21.30;7.73;;;12.80;59.30;;;;;;10273470;28;20230;-92
2022/03/30 07:00:34;;;;;;;19.67;9.87;;;14.10;61.80;;;;;;10256860;28;20260;-91
2022/03/30 07:05:38;;;;;;;16.23;9.33;;;11.10;70.80;;;;;;10272754;28;20209;-92
2022/03/30 07:10:40;;;;;;;17.47;8.50;;;14.30;64.00;;;;;;10262898;28;20786;-93
2022/03/30 07:15:43;;;;;;;19.53;7.47;;;14.30;61.30;;;;;;10298622;28;20225;-92
2022/03/30 07:20:46;;;;;;;16.93;7.50;;;12.40;64.80;;;;;;10318122;28;20229;-91
2022/03/30 07:25:49;;;;;;;11.63;5.17;;;12.40;64.40;;;;;;10276015;28;20237;-92
2022/03/30 07:30:53;;;;;;;15.10;7.77;;;9.80;66.40;;;;;;10269936;28;20225;-94
2022/03/30 07:35:55;;;;;;;16.27;5.73;;;9.90;75.00;;;;;;10256656;28;20244;-92
2022/03/30 07:41:00;;;;;;;19.47;8.00;;;;;;;;;;10257388;28;20205;-94
2022/03/30 07:46:03;;;;;;;12.43;5.30;;;10.30;77.70;;;;;;10275057;28;20276;-93
2022/03/30 07:51:06;;;;;;;14.60;5.53;;;9.00;66.70;;;;;;10257984;28;20270;-94
2022/03/30 07:56:08;;;;;;;19.77;6.60;;;6.40;75.50;;;;;;10274581;28;20576;-93
2022/03/30 08:01:11;;;;;;;10.00;4.57;;;9.50;79.70;;;;;;10276372;28;20584;-93
2022/03/30 08:06:13;;;;;;;15.90;4.43;;;9.90;71.70;;;;;;10276292;28;20215;-93
2022/03/30 08:11:16;;;;;;;24.17;5.43;;;9.80;72.20;;;;;;10277408;28;20222;-85
2022/03/30 08:16:19;;;;;;;11.57;3.57;;;10.10;74.50;;;;;;10288252;28;20250;-86
2022/03/30 08:26:42;;;;;;;19.93;4.00;;;9.70;75.10;;;;;;10267940;28;20236;-86
2022/03/30 08:31:47;;;;;;;14.93;4.40;;;9.90;72.00;;;;;;10286221;28;20912;-86
2022/03/30 08:36:50;;;;;;;6.50;2.87;;;11.00;74.30;;;;;;10275676;28;20229;-88
2022/03/30 08:41:53;;;;;;;15.17;4.77;;;11.70;59.50;;;;;;10259489;28;20240;-86
2022/03/30 08:46:56;;;;;;;6.17;3.03;;;;;;;;;;10276448;28;20241;-86
2022/03/30 08:51:59;;;;;;;11.43;3.93;;;14.10;86.00;;;;;;10290365;28;20292;-86
2022/03/30 08:57:03;;;;;;;7.87;3.53;;;15.10;62.90;;;;;;10288977;28;20753;-86
2022/03/30 09:02:08;;;;;;;8.47;2.97;;;12.30;58.80;;;;;;10311757;28;20290;-87
2022/03/30 09:07:19;;;;;;;7.27;2.97;;;13.00;67.80;;;;;;10294031;28;20249;-86
2022/03/30 09:12:26;;;;;;;6.97;2.73;;;13.00;55.80;;;;;;10313188;28;20240;-86
2022/03/30 09:17:41;;;;;;;6.37;2.50;;;11.90;62.60;;;;;;10290312;28;20224;-87
2022/03/30 09:22:49;;;;;;;6.63;2.07;;;13.70;67.80;;;;;;10308967;28;20284;-87
2022/03/30 09:28:13;;;;;;;8.80;3.70;;;14.30;49.30;;;;;;10288751;28;20309;-86
2022/03/30 09:33:23;;;;;;;6.73;2.70;;;15.20;60.40;;;;;;10267530;28;20288;-86
2022/03/30 09:38:28;;;;;;;3.90;1.97;;;14.50;66.00;;;;;;10291196;28;20672;-87
2022/03/30 09:43:37;;;;;;;5.13;2.90;;;14.80;50.00;;;;;;10256999;28;20243;-87
2022/03/30 09:48:56;;;;;;;5.80;2.57;;;16.40;61.20;;;;;;10273566;28;20226;-86
2022/03/30 09:53:58;;;;;;;3.80;1.97;;;13.50;60.20;;;;;;10289831;28;20315;-87
2022/03/30 09:59:05;;;;;;;4.07;2.17;;;15.30;63.30;;;;;;10272602;28;20295;-86
2022/03/30 10:04:10;;;;;;;4.47;1.77;;;15.90;59.40;;;;;;10297361;28;20658;-87
2022/03/30 10:09:15;;;;;;;2.90;1.70;;;15.30;62.50;;;;;;10287212;28;20309;-86
2022/03/30 10:14:18;;;;;;;3.73;1.93;;;14.70;64.30;;;;;;10272064;28;20738;-86
2022/03/30 10:19:21;;;;;;;3.63;1.97;;;11.70;59.70;;;;;;10271489;28;20237;-86
2022/03/30 10:25:02;;;;;;;4.80;2.13;;;12.60;63.00;;;;;;10287489;28;20229;-86
2022/03/30 10:30:07;;;;;;;1.93;1.10;;;15.20;63.80;;;;;;10299927;28;20235;-88
2022/03/30 10:35:14;;;;;;;5.60;1.73;;;12.50;48.80;;;;;;10270786;28;20653;-87
2022/03/30 10:40:25;;;;;;;2.90;1.67;;;12.60;57.30;;;;;;10270758;28;20299;-88
2022/03/30 10:45:48;;;;;;;3.80;1.90;;;13.40;67.50;;;;;;10287221;28;20225;-87
2022/03/30 10:51:07;;;;;;;4.77;1.90;;;15.70;48.20;;;;;;10287562;28;20256;-87
2022/03/30 10:56:12;;;;;;;6.40;2.63;;;15.30;59.90;;;;;;10245528;28;20227;-86
2022/03/30 11:01:22;;;;;;;2.83;1.87;;;14.60;44.20;;;;;;10230816;28;20238;-87
2022/03/30 11:06:26;;;;;;;3.17;1.70;;;10.70;45.40;;;;;;10246546;28;20238;-87
2022/03/30 11:11:40;;;;;;;5.87;1.70;;;11.40;57.60;;;;;;10247706;29;20257;-87
2022/03/30 11:17:04;;;;;;;25.97;2.73;;;13.60;53.30;;;;;;10246271;28;20285;-87
2022/03/30 11:22:15;;;;;;;2.57;1.70;;;11.70;45.90;;;;;;10246240;29;20674;-86
2022/03/30 11:27:19;;;;;;;2.27;1.27;;;14.40;65.50;;;;;;10237322;28;20239;-87
2022/03/30 11:32:32;;;;;;;4.43;1.03;;;15.00;49.00;;;;;;10253955;28;20300;-87
2022/03/30 11:37:39;;;;;;;2.43;1.53;;;12.90;46.60;;;;;;10286122;28;20265;-86
2022/03/30 11:42:45;;;;;;;2.77;1.60;;;11.40;50.00;;;;;;10262830;28;20796;-86
2022/03/30 11:47:51;;;;;;;3.50;1.40;;;12.00;69.50;;;;;;10245970;28;20296;-86
2022/03/30 11:52:56;;;;;;;3.97;1.90;;;11.00;62.50;;;;;;10260335;28;20268;-87
2022/03/30 11:58:00;;;;;;;3.93;2.73;;;12.00;56.00;;;;;;10268365;28;20226;-87
2022/03/30 12:03:03;;;;;;;3.93;1.30;;;14.70;64.20;;;;;;10286326;28;20269;-87
2022/03/30 12:08:06;;;;;;;2.50;1.93;;;14.30;41.20;;;;;;10273300;28;20284;-87
2022/03/30 12:13:09;;;;;;;3.17;0.97;;;12.90;58.10;;;;;;10334125;28;20295;-87
2022/03/30 12:18:12;;;;;;;6.13;2.50;;;13.60;45.50;;;;;;10335267;28;20233;-86
2022/03/30 12:23:15;;;;;;;4.10;1.60;;;12.30;42.80;;;;;;10317645;28;20239;-87
2022/03/30 12:28:31;;;;;;;2.43;1.53;;;12.00;45.30;;;;;;10316615;28;20340;-86
2022/03/30 12:33:51;;;;;;;13.70;1.67;;;11.50;58.20;;;;;;10318005;28;20371;-86
2022/03/30 12:38:54;;;;;;;3.90;1.53;;;11.30;51.30;;;;;;10338492;28;20192;-86
2022/03/30 12:44:00;;;;;;;1.73;1.43;;;10.40;44.50;;;;;;10304406;28;20208;-87
2022/03/30 12:49:04;;;;;;;3.13;1.70;;;9.90;45.50;;;;;;10293494;28;20287;-86
2022/03/30 12:54:21;;;;;;;3.03;1.00;;;10.50;43.90;;;;;;10274785;28;20323;-86
2022/03/30 12:59:25;;;;;;;3.77;1.33;;;11.30;51.30;;;;;;10274761;28;20276;-87
2022/03/30 13:04:30;;;;;;;3.40;1.27;;;11.60;68.10;;;;;;10274215;28;20276;-87
2022/03/30 13:09:32;;;;;;;1.40;1.10;;;12.40;43.70;;;;;;10291884;28;20678;-87
2022/03/30 13:14:47;;;;;;;2.50;1.33;;;12.00;69.20;;;;;;10291768;28;20257;-87
2022/03/30 13:20:02;;;;;;;3.20;1.30;;;12.30;69.30;;;;;;10274074;28;20676;-86
2022/03/30 13:25:05;;;;;;;3.00;1.20;;;10.80;40.50;;;;;;10274890;28;20240;-87
2022/03/30 13:30:08;;;;;;;4.03;1.03;;;12.50;57.30;;;;;;10288121;28;20631;-86
2022/03/30 13:35:11;;;;;;;6.47;1.10;;;11.50;63.20;;;;;;10295420;28;20754;-87
2022/03/30 13:40:14;;;;;;;1.40;0.87;;;10.50;40.40;;;;;;10292917;28;20265;-87
2022/03/30 13:45:18;;;;;;;1.30;0.77;;;11.50;48.50;;;;;;10273136;28;20213;-87
2022/03/30 13:50:21;;;;;;;1.30;1.13;;;11.10;42.90;;;;;;10272834;28;20624;-86
2022/03/30 13:55:23;;;;;;;4.93;1.73;;;11.20;69.70;;;;;;10272092;28;20316;-86
2022/03/30 14:00:27;;;;;;;2.03;1.27;;;11.80;50.80;;;;;;10302272;28;20229;-87
2022/03/30 14:05:31;;;;;;;2.70;1.60;;;11.30;48.20;;;;;;10274405;28;20303;-86
2022/03/30 14:10:34;;;;;;;2.97;1.63;;;10.80;50.80;;;;;;10274844;28;20685;-93
2022/03/30 14:15:37;;;;;;;2.17;1.63;;;11.50;54.80;;;;;;10279056;28;20224;-93
2022/03/30 14:20:41;;;;;;;2.23;1.73;;;11.20;50.50;;;;;;10296339;28;20205;-92
2022/03/30 14:25:44;;;;;;;3.33;1.60;;;10.20;53.90;;;;;;10263362;28;20568;-92
2022/03/30 14:30:47;;;;;;;5.57;2.03;;;12.10;57.10;;;;;;10262237;28;20267;-92
2022/03/30 14:35:50;;;;;;;1.80;1.30;;;11.40;53.70;;;;;;10262334;28;20290;-92
2022/03/30 14:40:52;;;;;;;19.70;2.67;;;12.50;58.20;;;;;;10273124;28;20209;-88
2022/03/30 14:45:55;;;;;;;6.53;2.20;;;12.60;59.00;;;;;;10271246;28;20345;-88
2022/03/30 14:50:58;;;;;;;4.40;2.37;;;12.10;52.60;;;;;;10286798;28;20248;-88
2022/03/30 14:56:00;;;;;;;7.77;2.73;;;12.00;49.50;;;;;;10281244;28;20230;-88
2022/03/30 15:01:03;;;;;;;18.47;1.90;;;11.90;51.40;;;;;;10269758;28;20244;-88
2022/03/30 15:06:06;;;;;;;8.23;3.83;;;11.70;56.80;;;;;;10285710;28;20272;-88
2022/03/30 15:11:09;;;;;;;4.13;2.00;;;13.00;52.90;;;;;;10269904;28;20245;-88
2022/03/30 15:16:14;;;;;;;6.10;2.40;;;;;;;;;;10253535;28;20272;-87
2022/03/30 15:21:18;;;;;;;3.23;2.13;;;12.60;61.10;;;;;;10270351;28;20217;-88
2022/03/30 15:26:21;;;;;;;6.70;2.23;;;11.30;49.40;;;;;;10269173;28;20237;-89
2022/03/30 15:31:25;;;;;;;3.83;1.33;;;12.80;54.40;;;;;;10268441;28;20234;-88
2022/03/30 15:36:27;;;;;;;7.30;2.20;;;14.00;53.90;;;;;;10285693;28;20225;-88
2022/03/30 15:41:30;;;;;;;7.90;1.60;;;13.80;47.00;;;;;;10269636;28;20229;-88
2022/03/30 15:46:33;;;;;;;7.83;1.73;;;12.80;50.90;;;;;;10254898;28;20241;-88
2022/03/30 15:51:36;;;;;;;5.07;1.83;;;12.90;48.20;;;;;;10324577;28;20940;-88
2022/03/30 15:56:39;;;;;;;7.63;2.27;;;11.90;50.80;;;;;;10281796;28;20229;-88
2022/03/30 16:01:42;;;;;;;6.33;2.30;;;12.40;49.20;;;;;;10286881;28;20241;-88
2022/03/30 16:06:45;;;;;;;6.47;2.53;;;10.00;50.00;;;;;;10271575;28;20248;-88
2022/03/30 16:17:10;;;;;;;14.07;5.20;;;11.00;57.80;;;;;;10319233;28;20293;-88
2022/03/30 16:22:13;;;;;;;7.50;4.73;;;9.40;53.70;;;;;;10306409;28;20642;-88
2022/03/30 16:27:16;;;;;;;15.70;9.17;;;9.00;62.90;;;;;;10269237;28;20272;-88
2022/03/30 16:32:20;;;;;;;20.93;11.07;;;10.20;59.90;;;;;;10269763;28;20319;-88
2022/03/30 16:37:22;;;;;;;4.17;2.27;;;9.90;59.20;;;;;;10270316;28;20276;-88
2022/03/30 16:42:26;;;;;;;17.97;10.90;;;10.90;63.80;;;;;;10253852;28;20581;-87
2022/03/30 16:47:28;;;;;;;22.27;6.40;;;10.60;57.00;;;;;;10286797;28;20283;-88
2022/03/30 16:52:31;;;;;;;15.17;9.73;;;11.50;60.50;;;;;;10285609;28;20273;-88
2022/03/30 16:57:34;;;;;;;4.83;3.00;;;10.60;59.40;;;;;;10292448;28;20229;-88
2022/03/30 17:02:36;;;;;;;21.30;8.80;;;11.00;64.10;;;;;;10276475;28;20229;-88
2022/03/30 17:07:39;;;;;;;11.20;6.13;;;12.30;57.90;;;;;;10302930;28;20276;-88
2022/03/30 17:12:42;;;;;;;17.03;8.97;;;12.40;60.90;;;;;;10306418;28;20240;-88
2022/03/30 17:17:45;;;;;;;15.73;8.10;;;11.60;63.10;;;;;;10283781;28;20232;-88
2022/03/30 17:22:48;;;;;;;16.47;8.90;;;11.80;60.20;;;;;;10311734;28;20272;-88
2022/03/30 17:27:51;;;;;;;10.57;7.03;;;9.90;60.60;;;;;;10290273;28;20679;-87
2022/03/30 17:32:55;;;;;;;10.87;7.70;;;10.70;64.50;;;;;;10294725;28;20689;-88
2022/03/30 17:37:58;;;;;;;14.83;9.10;;;11.60;60.00;;;;;;10318033;28;20290;-88
2022/03/30 17:43:02;;;;;;;14.37;7.87;;;10.80;54.10;;;;;;10288713;28;20229;-88
2022/03/30 17:53:26;;;;;;;14.93;7.07;;;9.30;59.00;;;;;;10294232;28;20256;-87
2022/03/30 17:58:31;;;;;;;13.27;7.50;;;10.90;65.30;;;;;;10273446;28;20276;-89
2022/03/30 18:03:34;;;;;;;13.70;7.77;;;9.60;59.50;;;;;;10289026;28;20233;-87
2022/03/30 18:08:37;;;;;;;10.87;6.67;;;10.70;62.70;;;;;;10271571;28;20241;-88
2022/03/30 18:13:40;;;;;;;12.60;6.57;;;12.50;61.00;;;;;;10287958;28;20315;-90
2022/03/30 18:18:42;;;;;;;10.97;6.83;;;13.90;58.90;;;;;;10285202;28;20287;-88
2022/03/30 18:23:46;;;;;;;10.73;5.93;;;12.80;52.50;;;;;;10295274;28;20281;-88
2022/03/30 18:28:49;;;;;;;7.30;6.20;;;11.50;57.20;;;;;;10284337;28;20670;-89
2022/03/30 18:33:52;;;;;;;6.60;5.57;;;12.90;51.40;;;;;;10300504;28;20336;-88
2022/03/30 18:39:09;;;;;;;9.73;5.80;;;11.50;58.60;;;;;;10530330;27;20543;-89
2022/03/30 18:44:12;;;;;;;7.40;5.20;;;13.40;57.20;;;;;;10475790;28;20230;-88
2022/03/30 18:49:15;;;;;;;8.63;5.90;;;12.90;62.80;;;;;;10506845;28;20291;-88
2022/03/30 18:54:18;;;;;;;7.30;5.73;;;11.80;61.70;;;;;;10501489;28;20217;-88
2022/03/30 18:59:27;;;;;;;8.97;5.57;;;12.90;60.80;;;;;;10519341;28;20229;-89
2022/03/30 19:04:32;;;;;;;8.20;5.57;;;13.50;57.60;;;;;;10477633;28;20271;-88
2022/03/30 19:09:35;;;;;;;13.30;6.33;;;12.10;56.00;;;;;;10495319;28;20233;-88
2022/03/30 19:14:37;;;;;;;10.43;7.00;;;11.50;57.20;;;;;;10517734;28;20245;-89
2022/03/30 19:19:41;;;;;;;10.67;6.70;;;10.60;60.00;;;;;;10497283;28;20306;-89
2022/03/30 19:24:43;;;;;;;8.80;6.60;;;12.30;62.30;;;;;;10483104;28;20619;-88
2022/03/30 19:29:46;;;;;;;7.27;4.60;;;11.60;57.40;;;;;;10508501;28;20446;-88
2022/03/30 19:34:48;;;;;;;9.53;6.33;;;12.20;64.40;;;;;;10515837;28;20260;-88
2022/03/30 19:39:52;;;;;;;7.97;5.07;;;10.20;54.20;;;;;;10502991;28;20278;-88
2022/03/30 19:44:54;;;;;;;10.53;5.20;;;10.10;64.40;;;;;;10523610;28;20702;-88
2022/03/30 19:49:57;;;;;;;9.90;5.57;;;9.80;59.70;;;;;;10463664;28;20248;-89
2022/03/30 19:55:01;;;;;;;6.73;4.87;;;8.50;57.40;;;;;;10487679;28;20256;-89
2022/03/30 20:00:06;;;;;;;7.60;4.10;;;10.70;69.10;;;;;;10466754;28;20738;-90
2022/03/30 20:05:09;;;;;;;11.67;6.60;;;10.30;65.60;;;;;;10472396;28;20210;-89
2022/03/30 20:10:12;;;;;;;8.00;4.40;;;8.60;56.90;;;;;;10477566;28;20740;-89
2022/03/30 20:15:14;;;;;;;4.60;3.90;;;9.20;75.80;;;;;;10476170;28;20256;-89
2022/03/30 20:20:17;;;;;;;6.77;4.90;;;10.10;55.70;;;;;;10455548;28;20214;-89
2022/03/30 20:25:19;;;;;;;6.93;4.03;;;9.50;55.00;;;;;;10467999;28;20370;-89
2022/03/30 20:30:27;;;;;;;6.90;4.37;;;;;;;;;;10476216;28;20244;-89
2022/03/30 20:35:30;;;;;;;6.00;4.10;;;8.10;60.30;;;;;;10441172;28;20330;-89
2022/03/30 20:40:32;;;;;;;5.73;3.63;;;9.60;59.60;;;;;;10434600;28;20198;-89
2022/03/30 20:45:35;;;;;;;6.97;3.70;;;10.80;54.70;;;;;;10423662;28;20234;-89
2022/03/30 20:50:39;;;;;;;4.47;3.47;;;9.50;60.60;;;;;;10452418;28;20259;-89
2022/03/30 20:55:42;;;;;;;6.33;3.70;;;12.00;64.60;;;;;;10431144;28;20288;-89
2022/03/30 21:00:45;;;;;;;4.87;3.57;;;12.80;57.80;;;;;;10450224;28;20223;-88
2022/03/30 21:05:48;;;;;;;4.57;3.53;;;12.10;64.80;;;;;;10427423;28;20292;-88
2022/03/30 21:10:51;;;;;;;6.27;4.00;;;13.10;62.30;;;;;;10407697;28;20260;-88
2022/03/30 21:15:53;;;;;;;5.43;3.30;;;12.20;52.40;;;;;;10445054;28;20247;-87
2022/03/30 21:20:56;;;;;;;5.00;3.90;;;11.00;64.60;;;;;;10377210;28;20200;-87
2022/03/30 21:26:00;;;;;;;8.47;5.57;;;11.70;65.20;;;;;;10419177;28;20227;-87
2022/03/30 21:31:03;;;;;;;7.87;4.50;;;13.20;61.20;;;;;;10423438;28;20605;-87
2022/03/30 21:36:06;;;;;;;4.63;3.83;;;12.50;61.90;;;;;;10465495;28;20291;-87
2022/03/30 21:41:09;;;;;;;3.97;3.07;;;13.30;61.30;;;;;;10508008;28;20617;-86
2022/03/30 21:46:14;;;;;;;6.83;4.17;;;13.30;63.10;;;;;;10462937;28;20234;-87
2022/03/30 21:51:17;;;;;;;5.27;4.13;;;13.90;58.30;;;;;;10442775;28;20578;-87
2022/03/30 21:56:20;;;;;;;6.70;4.10;;;13.70;59.40;;;;;;10487908;28;20685;-87
2022/03/30 22:01:23;;;;;;;4.50;2.90;;;12.70;48.10;;;;;;10471736;28;20248;-87
2022/03/30 22:06:25;;;;;;;4.40;3.27;;;13.10;50.40;;;;;;10489353;28;20290;-87
2022/03/30 22:11:28;;;;;;;7.87;3.77;;;12.80;59.30;;;;;;10432585;28;20199;-87
2022/03/30 22:16:31;;;;;;;4.60;3.40;;;12.50;56.40;;;;;;10477715;28;20254;-87
2022/03/30 22:21:35;;;;;;;5.33;3.53;;;11.40;55.70;;;;;;10496569;28;20625;-87
2022/03/30 22:26:39;;;;;;;4.23;3.03;;;12.10;58.90;;;;;;10449609;28;20621;-87
2022/03/30 22:37:03;;;;;;;4.93;3.87;;;9.40;69.60;;;;;;10463012;28;20739;-87
2022/03/30 22:42:06;;;;;;;4.57;3.67;;;10.20;61.50;;;;;;10428714;28;20283;-87
2022/03/30 22:47:08;;;;;;;9.40;4.57;;;9.20;67.50;;;;;;10448619;28;20641;-87
2022/03/30 22:52:11;;;;;;;14.60;4.93;;;;;;;;;;10413677;28;20231;-88
2022/03/30 22:57:14;;;;;;;6.60;4.33;;;4.60;62.70;;;;;;10430567;28;20306;-87
2022/03/30 23:02:18;;;;;;;5.77;4.37;;;7.70;81.50;;;;;;10448681;28;20223;-87
2022/03/30 23:12:42;;;;;;;5.73;4.13;;;7.70;79.50;;;;;;10449446;28;20230;-88
2022/03/30 23:17:44;;;;;;;5.83;3.53;;;8.00;82.40;;;;;;10414657;28;20646;-87
2022/03/30 23:22:47;;;;;;;4.20;3.53;;;7.80;79.70;;;;;;10451753;28;20222;-87
2022/03/30 23:27:50;;;;;;;7.80;4.93;;;6.80;84.80;;;;;;10438842;28;20933;-87
2022/03/30 23:32:52;;;;;;;9.00;4.70;;;7.70;63.90;;;;;;10438273;28;20664;-88
2022/03/30 23:37:57;;;;;;;4.03;2.83;;;6.20;61.00;;;;;;10456249;28;20655;-87
2022/03/30 23:43:00;;;;;;;5.87;4.03;;;8.20;85.80;;;;;;10438203;28;20292;-87
2022/03/30 23:48:03;;;;;;;6.50;3.57;;;7.30;73.00;;;;;;10436879;28;20232;-87
2022/03/30 23:53:06;;;;;;;6.03;4.20;;;6.30;85.10;;;;;;10437431;28;20199;-88
2022/03/30 23:58:08;;;;;;;5.93;4.50;;;7.80;62.50;;;;;;10420885;28;20701;-87
